createdAt,value
2019-05-05T00:00:24.616Z,99.90
2019-05-05T00:01:46.980Z,99.90
2019-05-05T00:02:58.502Z,99.90
2019-05-05T00:04:12.539Z,99.90
2019-05-05T00:05:32.671Z,99.90
2019-05-05T00:06:37.051Z,99.90
2019-05-05T00:07:41.403Z,99.90
2019-05-05T00:08:45.837Z,99.90
2019-05-05T00:09:50.284Z,99.90
2019-05-05T00:11:10.331Z,99.90
2019-05-05T00:12:31.843Z,99.90
2019-05-05T00:13:55.175Z,99.90
2019-05-05T00:15:34.483Z,99.90
2019-05-05T00:17:10.173Z,99.90
2019-05-05T00:18:15.199Z,99.90
2019-05-05T00:19:32.218Z,99.90
2019-05-05T00:20:25.778Z,99.90
2019-05-05T00:21:30.331Z,99.90
2019-05-05T00:22:35.088Z,99.90
2019-05-05T00:23:39.395Z,99.90
2019-05-05T00:24:44.380Z,99.90
2019-05-05T00:25:48.999Z,99.90
2019-05-05T00:26:55.226Z,99.90
2019-05-05T00:27:59.451Z,99.90
2019-05-05T00:29:04.453Z,99.90
2019-05-05T00:30:09.070Z,99.90
2019-05-05T00:31:15.069Z,99.90
2019-05-05T00:32:19.720Z,99.90
2019-05-05T00:33:24.870Z,99.90
2019-05-05T00:34:29.500Z,99.90
2019-05-05T00:35:34.510Z,99.90
2019-05-05T00:36:38.958Z,99.90
2019-05-05T00:37:45.048Z,99.90
2019-05-05T00:38:49.797Z,99.90
2019-05-05T00:39:54.386Z,99.90
2019-05-05T00:40:59.029Z,99.90
2019-05-05T00:42:04.800Z,99.90
2019-05-05T00:43:09.347Z,99.90
2019-05-05T00:44:15.310Z,99.90
2019-05-05T00:45:20.011Z,99.90
2019-05-05T00:46:44.590Z,99.90
2019-05-05T00:48:01.491Z,99.90
2019-05-05T00:49:07.092Z,99.90
2019-05-05T00:50:14.560Z,99.90
2019-05-05T00:51:19.097Z,99.90
2019-05-05T00:52:24.554Z,99.90
2019-05-05T00:53:29.127Z,99.90
2019-05-05T00:54:34.697Z,99.90
2019-05-05T00:55:41.716Z,99.90
2019-05-05T00:56:46.038Z,99.90
2019-05-05T00:57:50.399Z,99.90
2019-05-05T00:58:58.865Z,99.90
2019-05-05T01:00:05.066Z,99.90
2019-05-05T01:01:34.557Z,99.90
2019-05-05T01:02:44.844Z,99.90
2019-05-05T01:03:49.397Z,99.90
2019-05-05T01:05:10.557Z,99.90
2019-05-05T01:06:20.880Z,99.90
2019-05-05T01:07:25.182Z,99.90
2019-05-05T01:08:29.679Z,99.90
2019-05-05T01:09:35.842Z,99.90
2019-05-05T01:10:40.258Z,99.90
2019-05-05T01:11:44.695Z,99.90
2019-05-05T01:12:49.134Z,99.90
2019-05-05T01:13:54.690Z,99.90
2019-05-05T01:14:59.332Z,99.90
2019-05-05T01:16:04.786Z,99.90
2019-05-05T01:17:09.593Z,99.90
2019-05-05T01:18:15.253Z,99.90
2019-05-05T01:19:19.931Z,99.90
2019-05-05T01:20:25.014Z,99.90
2019-05-05T01:21:29.454Z,99.90
2019-05-05T01:22:34.235Z,99.90
2019-05-05T01:23:38.803Z,99.90
2019-05-05T01:24:43.133Z,99.90
2019-05-05T01:25:48.770Z,99.90
2019-05-05T01:26:55.001Z,99.90
2019-05-05T01:27:59.463Z,99.90
2019-05-05T01:29:05.343Z,99.90
2019-05-05T01:30:15.527Z,99.90
2019-05-05T01:31:20.277Z,99.90
2019-05-05T01:32:28.883Z,99.90
2019-05-05T01:33:39.074Z,99.90
2019-05-05T01:34:45.014Z,99.90
2019-05-05T01:35:49.523Z,99.90
2019-05-05T01:37:00.080Z,99.90
2019-05-05T01:38:14.224Z,99.90
2019-05-05T01:39:36.596Z,99.90
2019-05-05T01:40:47.794Z,99.90
2019-05-05T01:41:55.614Z,99.90
2019-05-05T01:42:59.984Z,99.90
2019-05-05T01:44:04.966Z,99.90
2019-05-05T01:45:09.499Z,99.90
2019-05-05T01:46:14.430Z,99.90
2019-05-05T01:47:19.035Z,99.90
2019-05-05T01:48:24.804Z,99.90
2019-05-05T01:49:30.740Z,99.90
2019-05-05T01:50:35.248Z,99.90
2019-05-05T01:51:39.734Z,99.90
2019-05-05T01:52:45.106Z,99.90
2019-05-05T01:53:49.595Z,99.90
2019-05-05T01:54:54.815Z,99.90
2019-05-05T01:56:00.212Z,99.90
2019-05-05T01:57:05.552Z,99.90
2019-05-05T01:58:10.302Z,99.90
2019-05-05T01:59:14.783Z,99.90
2019-05-05T02:00:19.341Z,99.90
2019-05-05T02:01:24.644Z,99.90
2019-05-05T02:02:29.319Z,99.90
2019-05-05T02:03:34.988Z,99.90
2019-05-05T02:04:39.667Z,99.90
2019-05-05T02:05:45.280Z,99.90
2019-05-05T02:06:50.363Z,99.90
2019-05-05T02:07:55.305Z,99.90
2019-05-05T02:09:00.016Z,99.90
2019-05-05T02:10:06.048Z,99.90
2019-05-05T02:11:11.548Z,99.90
2019-05-05T02:12:16.098Z,99.90
2019-05-05T02:13:20.579Z,99.90
2019-05-05T02:14:25.363Z,99.90
2019-05-05T02:15:29.751Z,99.90
2019-05-05T02:16:34.741Z,99.90
2019-05-05T02:17:39.454Z,99.90
2019-05-05T02:18:45.067Z,99.90
2019-05-05T02:19:49.708Z,99.90
2019-05-05T02:21:05.806Z,99.90
2019-05-05T02:22:10.135Z,99.90
2019-05-05T02:23:16.240Z,99.90
2019-05-05T02:24:20.784Z,99.90
2019-05-05T02:25:25.114Z,99.90
2019-05-05T02:26:29.463Z,99.90
2019-05-05T02:27:34.403Z,99.90
2019-05-05T02:28:58.262Z,99.90
2019-05-05T02:30:21.847Z,99.90
2019-05-05T02:31:45.548Z,99.90
2019-05-05T02:32:55.440Z,99.90
2019-05-05T02:34:00.010Z,99.90
2019-05-05T02:35:06.826Z,99.90
2019-05-05T02:36:11.214Z,99.90
2019-05-05T02:37:16.153Z,99.90
2019-05-05T02:38:20.811Z,99.90
2019-05-05T02:39:25.287Z,99.90
2019-05-05T02:40:29.963Z,99.90
2019-05-05T02:41:34.868Z,99.90
2019-05-05T02:42:41.163Z,99.90
2019-05-05T02:43:45.945Z,99.90
2019-05-05T02:44:54.275Z,99.90
2019-05-05T02:46:26.265Z,99.90
2019-05-05T02:47:56.474Z,99.90
2019-05-05T02:49:05.445Z,99.90
2019-05-05T02:50:09.464Z,99.90
2019-05-05T02:51:15.404Z,99.90
2019-05-05T02:52:21.058Z,99.90
2019-05-05T02:53:33.981Z,99.90
2019-05-05T02:54:39.279Z,99.90
2019-05-05T02:55:44.245Z,99.90
2019-05-05T02:56:50.453Z,99.90
2019-05-05T02:57:56.535Z,99.90
2019-05-05T02:59:04.303Z,99.90
2019-05-05T03:00:24.067Z,99.90
2019-05-05T03:01:36.905Z,99.90
2019-05-05T03:02:43.303Z,99.90
2019-05-05T03:03:48.668Z,99.90
2019-05-05T03:04:53.682Z,99.90
2019-05-05T03:05:59.098Z,99.90
2019-05-05T03:07:05.388Z,99.90
2019-05-05T03:08:09.947Z,99.90
2019-05-05T03:09:15.122Z,99.90
2019-05-05T03:10:19.618Z,99.90
2019-05-05T03:11:25.494Z,99.90
2019-05-05T03:12:34.569Z,99.90
2019-05-05T03:13:41.137Z,99.90
2019-05-05T03:14:46.639Z,99.90
2019-05-05T03:16:16.942Z,99.90
2019-05-05T03:17:23.473Z,99.90
2019-05-05T03:18:28.537Z,99.90
2019-05-05T03:19:33.928Z,99.90
2019-05-05T03:20:38.595Z,99.90
2019-05-05T03:21:44.173Z,99.90
2019-05-05T03:22:48.781Z,99.90
2019-05-05T03:23:54.775Z,99.90
2019-05-05T03:24:59.661Z,99.90
2019-05-05T03:26:04.457Z,99.90
2019-05-05T03:27:09.927Z,99.90
2019-05-05T03:28:14.331Z,99.90
2019-05-05T03:29:20.489Z,99.90
2019-05-05T03:30:26.042Z,99.90
2019-05-05T03:31:30.946Z,99.90
2019-05-05T03:32:36.151Z,99.90
2019-05-05T03:33:41.458Z,99.90
2019-05-05T03:34:46.022Z,99.90
2019-05-05T03:35:50.774Z,99.90
2019-05-05T03:36:55.511Z,99.90
2019-05-05T03:38:00.267Z,99.90
2019-05-05T03:39:06.374Z,99.90
2019-05-05T03:40:18.512Z,99.90
2019-05-05T03:41:34.346Z,99.90
2019-05-05T03:42:53.583Z,99.90
2019-05-05T03:44:04.979Z,99.90
2019-05-05T03:45:34.057Z,99.90
2019-05-05T03:46:38.404Z,99.90
2019-05-05T03:47:44.106Z,99.90
2019-05-05T03:48:49.042Z,99.90
2019-05-05T03:49:54.094Z,99.90
2019-05-05T03:50:58.599Z,99.90
2019-05-05T03:52:04.839Z,99.90
2019-05-05T03:53:09.932Z,99.90
2019-05-05T03:54:15.288Z,99.90
2019-05-05T03:55:20.242Z,99.90
2019-05-05T03:56:25.018Z,99.90
2019-05-05T03:57:29.997Z,99.90
2019-05-05T03:58:34.519Z,99.90
2019-05-05T03:59:41.646Z,99.90
2019-05-05T04:01:49.058Z,99.90
2019-05-05T04:03:00.525Z,99.90
2019-05-05T04:04:24.999Z,99.90
2019-05-05T04:05:34.017Z,99.90
2019-05-05T04:06:38.631Z,99.90
2019-05-05T04:07:44.042Z,99.90
2019-05-05T04:08:49.418Z,99.90
2019-05-05T04:09:54.358Z,99.90
2019-05-05T04:10:59.075Z,99.90
2019-05-05T04:12:04.435Z,99.90
2019-05-05T04:13:09.402Z,99.90
2019-05-05T04:14:14.642Z,99.90
2019-05-05T04:15:19.009Z,99.90
2019-05-05T04:16:29.094Z,99.90
2019-05-05T04:17:41.317Z,99.90
2019-05-05T04:18:49.386Z,99.90
2019-05-05T04:19:54.458Z,99.90
2019-05-05T04:20:58.797Z,99.90
2019-05-05T04:22:04.223Z,99.90
2019-05-05T04:23:08.814Z,99.90
2019-05-05T04:24:14.579Z,99.90
2019-05-05T04:25:19.223Z,99.90
2019-05-05T04:26:23.564Z,99.90
2019-05-05T04:27:27.890Z,99.90
2019-05-05T04:28:34.451Z,99.90
2019-05-05T04:29:38.320Z,99.90
2019-05-05T04:30:44.450Z,99.90
2019-05-05T04:31:48.753Z,99.90
2019-05-05T04:32:54.560Z,99.90
2019-05-05T04:33:59.241Z,99.90
2019-05-05T04:35:03.749Z,99.90
2019-05-05T04:36:08.090Z,99.90
2019-05-05T04:37:14.675Z,99.90
2019-05-05T04:38:19.256Z,99.90
2019-05-05T04:39:23.723Z,99.90
2019-05-05T04:40:28.355Z,99.90
2019-05-05T04:41:33.790Z,99.90
2019-05-05T04:42:38.442Z,99.90
2019-05-05T04:43:44.198Z,99.90
2019-05-05T04:44:48.790Z,99.90
2019-05-05T04:45:54.118Z,99.90
2019-05-05T04:47:03.887Z,99.90
2019-05-05T04:48:13.769Z,99.90
2019-05-05T04:49:37.617Z,99.90
2019-05-05T04:50:59.962Z,99.90
2019-05-05T04:52:08.030Z,99.90
2019-05-05T04:53:16.068Z,99.90
2019-05-05T04:54:24.477Z,99.90
2019-05-05T04:55:28.874Z,99.90
2019-05-05T04:56:34.332Z,99.90
2019-05-05T04:57:38.824Z,99.90
2019-05-05T04:58:44.021Z,99.90
2019-05-05T04:59:49.974Z,99.90
2019-05-05T05:00:54.763Z,99.90
2019-05-05T05:02:03.991Z,99.90
2019-05-05T05:03:34.673Z,99.90
2019-05-05T05:04:48.069Z,99.90
2019-05-05T05:05:58.035Z,99.90
2019-05-05T05:07:04.666Z,99.90
2019-05-05T05:08:09.258Z,99.90
2019-05-05T05:09:14.671Z,99.90
2019-05-05T05:10:24.157Z,99.90
2019-05-05T05:11:28.557Z,99.90
2019-05-05T05:12:34.154Z,99.90
2019-05-05T05:13:38.786Z,99.90
2019-05-05T05:14:44.087Z,99.90
2019-05-05T05:15:48.598Z,99.90
2019-05-05T05:16:54.191Z,99.90
2019-05-05T05:18:09.202Z,99.90
2019-05-05T05:19:13.897Z,99.90
2019-05-05T05:20:18.446Z,99.90
2019-05-05T05:21:23.721Z,99.90
2019-05-05T05:22:28.160Z,99.90
2019-05-05T05:23:34.070Z,99.90
2019-05-05T05:24:38.655Z,99.90
2019-05-05T05:25:43.867Z,99.90
2019-05-05T05:26:48.519Z,99.90
2019-05-05T05:27:53.607Z,99.90
2019-05-05T05:28:58.232Z,99.90
2019-05-05T05:30:04.515Z,99.90
2019-05-05T05:31:08.748Z,99.90
2019-05-05T05:32:13.055Z,99.90
2019-05-05T05:33:17.403Z,99.90
2019-05-05T05:34:23.767Z,99.90
2019-05-05T05:35:27.718Z,99.90
2019-05-05T05:36:33.829Z,99.90
2019-05-05T05:37:38.043Z,99.70
2019-05-05T05:38:43.836Z,99.50
2019-05-05T05:40:07.118Z,99.10
2019-05-05T05:41:13.817Z,98.70
2019-05-05T05:42:18.146Z,98.50
2019-05-05T05:43:29.559Z,98.50
2019-05-05T05:44:50.646Z,98.60
2019-05-05T05:46:05.241Z,98.70
2019-05-05T05:47:33.749Z,98.80
2019-05-05T05:49:07.004Z,98.90
2019-05-05T05:50:18.594Z,98.70
2019-05-05T05:51:23.795Z,98.40
2019-05-05T05:52:28.420Z,98.40
2019-05-05T05:53:34.738Z,98.30
2019-05-05T05:54:38.831Z,97.90
2019-05-05T05:55:44.811Z,97.50
2019-05-05T05:56:49.379Z,97.50
2019-05-05T05:57:54.264Z,97.80
2019-05-05T05:58:58.712Z,97.50
2019-05-05T06:00:04.109Z,97.20
2019-05-05T06:01:08.559Z,96.60
2019-05-05T06:02:15.513Z,96.50
2019-05-05T06:03:18.959Z,96.20
2019-05-05T06:04:23.809Z,95.80
2019-05-05T06:05:28.134Z,95.50
2019-05-05T06:06:34.503Z,95.20
2019-05-05T06:07:38.453Z,95.00
2019-05-05T06:08:43.970Z,95.30
2019-05-05T06:09:48.586Z,95.90
2019-05-05T06:10:54.658Z,95.60
2019-05-05T06:11:59.301Z,95.20
2019-05-05T06:13:04.232Z,95.30
2019-05-05T06:14:08.763Z,95.00
2019-05-05T06:15:14.200Z,94.40
2019-05-05T06:16:18.743Z,94.30
2019-05-05T06:17:23.871Z,93.80
2019-05-05T06:18:28.345Z,93.60
2019-05-05T06:19:35.700Z,93.40
2019-05-05T06:20:40.067Z,93.50
2019-05-05T06:21:44.854Z,93.40
2019-05-05T06:22:49.243Z,93.50
2019-05-05T06:23:53.870Z,92.50
2019-05-05T06:24:58.302Z,92.30
2019-05-05T06:26:06.701Z,92.40
2019-05-05T06:27:08.618Z,92.20
2019-05-05T06:28:14.457Z,91.40
2019-05-05T06:29:19.130Z,91.10
2019-05-05T06:30:24.340Z,91.00
2019-05-05T06:31:28.911Z,90.90
2019-05-05T06:32:34.253Z,90.80
2019-05-05T06:33:38.755Z,90.90
2019-05-05T06:34:44.299Z,90.90
2019-05-05T06:35:48.939Z,91.00
2019-05-05T06:36:53.740Z,91.30
2019-05-05T06:37:58.323Z,91.30
2019-05-05T06:39:04.587Z,91.10
2019-05-05T06:40:11.458Z,91.30
2019-05-05T06:41:28.111Z,91.30
2019-05-05T06:42:54.271Z,91.60
2019-05-05T06:44:06.604Z,91.60
2019-05-05T06:45:18.926Z,91.60
2019-05-05T06:46:26.207Z,91.20
2019-05-05T06:47:38.027Z,91.00
2019-05-05T06:48:43.890Z,90.40
2019-05-05T06:49:48.302Z,90.50
2019-05-05T06:50:54.423Z,90.50
2019-05-05T06:51:58.626Z,90.60
2019-05-05T06:53:04.294Z,90.80
2019-05-05T06:54:08.763Z,90.90
2019-05-05T06:55:14.071Z,90.80
2019-05-05T06:56:18.557Z,90.60
2019-05-05T06:57:24.030Z,90.40
2019-05-05T06:58:28.719Z,90.40
2019-05-05T06:59:34.991Z,90.40
2019-05-05T07:00:39.123Z,90.10
2019-05-05T07:01:44.269Z,90.10
2019-05-05T07:02:48.798Z,90.10
2019-05-05T07:03:54.145Z,90.30
2019-05-05T07:04:58.556Z,90.60
2019-05-05T07:06:04.267Z,90.40
2019-05-05T07:07:09.106Z,89.60
2019-05-05T07:08:13.849Z,89.50
2019-05-05T07:09:18.500Z,89.30
2019-05-05T07:10:24.445Z,88.10
2019-05-05T07:11:28.968Z,88.10
2019-05-05T07:12:34.715Z,87.70
2019-05-05T07:13:40.062Z,87.50
2019-05-05T07:14:44.705Z,87.20
2019-05-05T07:15:49.063Z,87.50
2019-05-05T07:16:54.456Z,88.20
2019-05-05T07:17:58.964Z,88.00
2019-05-05T07:19:04.397Z,87.50
2019-05-05T07:20:09.323Z,86.50
2019-05-05T07:21:14.353Z,83.50
2019-05-05T07:22:18.903Z,82.70
2019-05-05T07:23:24.639Z,82.20
2019-05-05T07:24:29.195Z,81.10
2019-05-05T07:25:42.110Z,81.90
2019-05-05T07:26:39.727Z,81.70
2019-05-05T07:27:44.260Z,80.30
2019-05-05T07:28:48.875Z,79.40
2019-05-05T07:29:54.146Z,80.10
2019-05-05T07:30:58.749Z,81.00
2019-05-05T07:32:03.943Z,80.90
2019-05-05T07:33:08.651Z,78.40
2019-05-05T07:34:13.908Z,76.40
2019-05-05T07:35:52.425Z,76.40
2019-05-05T07:36:49.287Z,75.40
2019-05-05T07:37:53.877Z,76.40
2019-05-05T07:38:58.383Z,73.60
2019-05-05T07:40:04.196Z,72.20
2019-05-05T07:41:08.826Z,71.80
2019-05-05T07:42:13.738Z,71.90
2019-05-05T07:43:18.264Z,72.90
2019-05-05T07:44:29.038Z,72.60
2019-05-05T07:45:28.699Z,71.00
2019-05-05T07:46:34.613Z,68.30
2019-05-05T07:47:39.345Z,67.70
2019-05-05T07:48:44.310Z,67.20
2019-05-05T07:49:48.807Z,67.70
2019-05-05T07:51:01.945Z,67.50
2019-05-05T07:51:59.261Z,67.20
2019-05-05T07:53:12.312Z,65.70
2019-05-05T07:54:09.712Z,65.60
2019-05-05T07:55:14.401Z,65.90
2019-05-05T07:56:19.051Z,65.70
2019-05-05T07:57:23.844Z,66.40
2019-05-05T07:58:28.285Z,65.40
2019-05-05T07:59:34.045Z,64.90
2019-05-05T08:00:38.727Z,65.30
2019-05-05T08:01:45.809Z,64.70
2019-05-05T08:02:49.110Z,65.20
2019-05-05T08:03:53.967Z,64.00
2019-05-05T08:04:58.491Z,64.20
2019-05-05T08:06:03.989Z,62.00
2019-05-05T08:07:08.625Z,61.40
2019-05-05T08:08:13.976Z,61.00
2019-05-05T08:09:24.940Z,59.40
2019-05-05T08:10:29.421Z,58.40
2019-05-05T08:11:34.398Z,57.30
2019-05-05T08:12:38.895Z,57.60
2019-05-05T08:13:44.316Z,57.70
2019-05-05T08:14:49.005Z,57.80
2019-05-05T08:15:59.858Z,58.00
2019-05-05T08:17:14.584Z,57.40
2019-05-05T08:18:30.171Z,57.60
2019-05-05T08:19:38.552Z,57.20
2019-05-05T08:20:45.697Z,57.00
2019-05-05T08:21:50.120Z,57.10
2019-05-05T08:22:54.507Z,57.50
2019-05-05T08:24:14.014Z,57.80
2019-05-05T08:25:36.137Z,57.60
2019-05-05T08:26:44.498Z,58.10
2019-05-05T08:28:00.144Z,58.90
2019-05-05T08:29:24.008Z,57.60
2019-05-05T08:30:37.518Z,57.50
2019-05-05T08:31:55.483Z,57.30
2019-05-05T08:32:59.968Z,56.90
2019-05-05T08:34:04.371Z,56.40
2019-05-05T08:35:08.794Z,56.00
2019-05-05T08:36:14.674Z,56.30
2019-05-05T08:37:19.203Z,55.60
2019-05-05T08:38:26.696Z,55.30
2019-05-05T08:39:31.040Z,54.70
2019-05-05T08:40:35.503Z,55.20
2019-05-05T08:41:39.899Z,53.20
2019-05-05T08:42:44.600Z,51.50
2019-05-05T08:43:49.102Z,51.90
2019-05-05T08:44:53.909Z,52.40
2019-05-05T08:45:58.460Z,52.10
2019-05-05T08:47:04.510Z,52.20
2019-05-05T08:48:09.032Z,51.30
2019-05-05T08:49:13.769Z,50.80
2019-05-05T08:50:18.355Z,50.60
2019-05-05T08:51:24.630Z,50.10
2019-05-05T08:52:28.871Z,50.50
2019-05-05T08:53:44.103Z,50.70
2019-05-05T08:54:39.434Z,51.00
2019-05-05T08:55:44.384Z,51.00
2019-05-05T08:56:48.936Z,51.60
2019-05-05T08:57:54.003Z,52.40
2019-05-05T08:58:58.563Z,52.70
2019-05-05T09:00:04.862Z,52.60
2019-05-05T09:01:09.126Z,53.10
2019-05-05T09:02:14.926Z,53.00
2019-05-05T09:03:19.540Z,53.50
2019-05-05T09:04:24.708Z,53.90
2019-05-05T09:05:29.194Z,54.60
2019-05-05T09:06:34.465Z,54.80
2019-05-05T09:07:39.623Z,55.00
2019-05-05T09:08:44.295Z,54.70
2019-05-05T09:09:48.802Z,54.90
2019-05-05T09:10:55.208Z,55.20
2019-05-05T09:11:59.243Z,56.20
2019-05-05T09:13:03.955Z,57.10
2019-05-05T09:14:08.388Z,57.10
2019-05-05T09:15:13.690Z,56.80
2019-05-05T09:16:18.371Z,56.40
2019-05-05T09:17:24.356Z,55.90
2019-05-05T09:18:28.801Z,55.90
2019-05-05T09:19:34.475Z,54.60
2019-05-05T09:20:38.950Z,53.10
2019-05-05T09:21:44.736Z,53.30
2019-05-05T09:22:49.326Z,53.00
2019-05-05T09:23:59.862Z,51.60
2019-05-05T09:25:08.451Z,50.10
2019-05-05T09:26:31.492Z,48.60
2019-05-05T09:27:44.283Z,47.90
2019-05-05T09:28:55.324Z,48.10
2019-05-05T09:29:59.667Z,48.30
2019-05-05T09:31:04.285Z,47.70
2019-05-05T09:32:08.723Z,47.90
2019-05-05T09:33:14.244Z,48.20
2019-05-05T09:34:19.194Z,48.00
2019-05-05T09:35:24.050Z,47.80
2019-05-05T09:36:28.601Z,46.90
2019-05-05T09:37:33.971Z,46.40
2019-05-05T09:38:38.863Z,46.20
2019-05-05T09:39:43.809Z,46.00
2019-05-05T09:40:48.333Z,45.50
2019-05-05T09:41:53.603Z,45.90
2019-05-05T09:42:58.134Z,44.80
2019-05-05T09:44:04.290Z,44.80
2019-05-05T09:45:09.932Z,45.00
2019-05-05T09:46:14.498Z,45.00
2019-05-05T09:47:19.185Z,44.70
2019-05-05T09:48:24.241Z,45.20
2019-05-05T09:49:28.864Z,45.60
2019-05-05T09:50:34.145Z,46.00
2019-05-05T09:51:39.454Z,46.50
2019-05-05T09:52:44.418Z,45.40
2019-05-05T09:53:48.856Z,45.70
2019-05-05T09:54:54.454Z,46.40
2019-05-05T09:55:59.174Z,46.80
2019-05-05T09:57:04.479Z,46.60
2019-05-05T09:58:09.275Z,46.80
2019-05-05T09:59:13.726Z,47.30
2019-05-05T10:00:18.320Z,47.30
2019-05-05T10:01:24.545Z,47.10
2019-05-05T10:02:29.164Z,47.30
2019-05-05T10:03:34.111Z,47.60
2019-05-05T10:04:50.303Z,47.60
2019-05-05T10:05:54.740Z,47.80
2019-05-05T10:06:59.159Z,48.30
2019-05-05T10:08:03.679Z,47.20
2019-05-05T10:09:09.667Z,46.80
2019-05-05T10:10:26.953Z,45.50
2019-05-05T10:11:31.451Z,44.20
2019-05-05T10:12:35.939Z,43.70
2019-05-05T10:13:40.484Z,44.40
2019-05-05T10:14:45.029Z,42.80
2019-05-05T10:15:49.599Z,41.70
2019-05-05T10:16:54.170Z,41.60
2019-05-05T10:17:58.787Z,42.30
2019-05-05T10:19:04.510Z,43.60
2019-05-05T10:20:14.514Z,44.60
2019-05-05T10:21:19.006Z,44.40
2019-05-05T10:22:23.952Z,44.20
2019-05-05T10:23:30.251Z,43.70
2019-05-05T10:24:39.989Z,44.00
2019-05-05T10:25:49.476Z,43.20
2019-05-05T10:26:54.352Z,43.40
2019-05-05T10:27:58.908Z,43.00
2019-05-05T10:29:04.200Z,43.60
2019-05-05T10:30:10.964Z,44.10
2019-05-05T10:31:15.298Z,44.60
2019-05-05T10:32:19.616Z,45.50
2019-05-05T10:33:24.697Z,47.20
2019-05-05T10:34:29.392Z,49.90
2019-05-05T10:35:34.419Z,52.50
2019-05-05T10:36:39.155Z,59.60
2019-05-05T10:37:43.966Z,90.50
2019-05-05T10:38:53.804Z,89.00
2019-05-05T10:39:58.354Z,90.30
2019-05-05T10:41:04.263Z,92.60
2019-05-05T10:42:08.848Z,92.20
2019-05-05T10:43:14.796Z,92.00
2019-05-05T10:44:19.180Z,90.10
2019-05-05T10:45:24.559Z,85.20
2019-05-05T10:46:29.262Z,84.80
2019-05-05T10:47:33.603Z,83.90
2019-05-05T10:48:38.015Z,81.50
2019-05-05T10:49:44.197Z,78.00
2019-05-05T10:50:48.858Z,78.10
2019-05-05T10:51:54.301Z,75.30
2019-05-05T10:52:59.030Z,60.50
2019-05-05T10:54:04.050Z,58.40
2019-05-05T10:55:08.793Z,58.20
2019-05-05T10:56:13.689Z,56.40
2019-05-05T10:57:18.578Z,55.00
2019-05-05T10:58:24.393Z,52.90
2019-05-05T10:59:28.815Z,50.10
2019-05-05T11:00:44.681Z,49.00
2019-05-05T11:01:49.202Z,47.70
2019-05-05T11:02:53.606Z,47.50
2019-05-05T11:03:57.897Z,47.50
2019-05-05T11:05:04.060Z,46.60
2019-05-05T11:06:08.463Z,45.50
2019-05-05T11:07:14.621Z,44.30
2019-05-05T11:08:19.590Z,44.20
2019-05-05T11:09:24.495Z,43.70
2019-05-05T11:10:33.945Z,44.40
2019-05-05T11:11:38.496Z,44.10
2019-05-05T11:12:44.385Z,44.20
2019-05-05T11:13:48.853Z,44.40
2019-05-05T11:14:54.519Z,43.80
2019-05-05T11:15:58.996Z,44.80
2019-05-05T11:17:04.110Z,44.80
2019-05-05T11:18:08.877Z,45.30
2019-05-05T11:19:13.890Z,45.20
2019-05-05T11:20:18.363Z,45.10
2019-05-05T11:21:23.670Z,45.00
2019-05-05T11:22:28.216Z,45.00
2019-05-05T11:23:34.890Z,45.40
2019-05-05T11:24:39.195Z,45.80
2019-05-05T11:25:44.269Z,45.20
2019-05-05T11:26:50.452Z,45.80
2019-05-05T11:27:54.840Z,45.00
2019-05-05T11:28:59.175Z,44.20
2019-05-05T11:30:17.219Z,44.00
2019-05-05T11:31:21.560Z,43.70
2019-05-05T11:32:45.030Z,43.20
2019-05-05T11:34:08.523Z,42.80
2019-05-05T11:35:13.947Z,41.20
2019-05-05T11:36:36.495Z,39.90
2019-05-05T11:37:40.873Z,39.10
2019-05-05T11:38:45.530Z,37.50
2019-05-05T11:39:49.899Z,36.80
2019-05-05T11:40:54.763Z,36.40
2019-05-05T11:41:59.315Z,35.60
2019-05-05T11:43:03.871Z,35.30
2019-05-05T11:44:08.271Z,34.50
2019-05-05T11:45:14.888Z,34.40
2019-05-05T11:46:18.871Z,34.80
2019-05-05T11:47:24.515Z,35.20
2019-05-05T11:48:29.084Z,35.60
2019-05-05T11:49:33.763Z,35.80
2019-05-05T11:50:38.267Z,35.00
2019-05-05T11:51:43.721Z,35.90
2019-05-05T11:52:48.290Z,35.60
2019-05-05T11:53:54.002Z,35.60
2019-05-05T11:55:09.661Z,33.90
2019-05-05T11:56:04.869Z,32.60
2019-05-05T11:57:09.179Z,31.00
2019-05-05T11:58:14.377Z,30.60
2019-05-05T11:59:19.127Z,30.00
2019-05-05T12:00:24.142Z,29.60
2019-05-05T12:01:28.718Z,29.50
2019-05-05T12:02:33.524Z,29.20
2019-05-05T12:03:38.087Z,28.70
2019-05-05T12:04:42.580Z,28.70
2019-05-05T12:05:46.958Z,28.60
2019-05-05T12:06:51.277Z,28.90
2019-05-05T12:07:55.588Z,29.30
2019-05-05T12:09:01.721Z,29.00
2019-05-05T12:10:07.874Z,27.80
2019-05-05T12:11:15.064Z,26.70
2019-05-05T12:12:19.843Z,26.10
2019-05-05T12:13:24.175Z,24.70
2019-05-05T12:14:30.036Z,24.50
2019-05-05T12:15:34.411Z,23.90
2019-05-05T12:16:38.791Z,23.70
2019-05-05T12:17:45.442Z,23.50
2019-05-05T12:18:49.844Z,22.10
2019-05-05T12:19:54.310Z,21.30
2019-05-05T12:20:58.686Z,21.00
2019-05-05T12:22:03.163Z,20.00
2019-05-05T12:23:08.122Z,19.90
2019-05-05T12:24:18.556Z,19.20
2019-05-05T12:25:40.752Z,19.00
2019-05-05T12:26:55.915Z,18.90
2019-05-05T12:28:10.407Z,19.30
2019-05-05T12:29:19.088Z,18.70
2019-05-05T12:30:24.509Z,19.30
2019-05-05T12:31:29.749Z,19.80
2019-05-05T12:32:34.786Z,20.30
2019-05-05T12:33:39.263Z,20.90
2019-05-05T12:34:44.598Z,20.60
2019-05-05T12:35:49.122Z,20.90
2019-05-05T12:36:54.087Z,21.90
2019-05-05T12:37:58.516Z,21.90
2019-05-05T12:39:04.495Z,22.10
2019-05-05T12:40:14.333Z,22.70
2019-05-05T12:41:20.939Z,22.40
2019-05-05T12:42:25.072Z,22.60
2019-05-05T12:43:29.457Z,22.80
2019-05-05T12:44:38.652Z,23.10
2019-05-05T12:45:45.143Z,22.80
2019-05-05T12:47:09.931Z,22.50
2019-05-05T12:48:23.954Z,22.50
2019-05-05T12:49:27.855Z,22.50
2019-05-05T12:50:33.810Z,22.10
2019-05-05T12:51:38.316Z,22.40
2019-05-05T12:52:44.101Z,23.00
2019-05-05T12:53:48.652Z,23.80
2019-05-05T12:54:54.597Z,24.10
2019-05-05T12:55:59.326Z,24.50
2019-05-05T12:57:04.406Z,25.40
2019-05-05T12:58:08.952Z,26.40
2019-05-05T12:59:19.563Z,27.50
2019-05-05T13:00:24.328Z,28.40
2019-05-05T13:01:33.618Z,29.30
2019-05-05T13:02:38.508Z,29.90
2019-05-05T13:03:43.715Z,30.40
2019-05-05T13:04:48.605Z,31.30
2019-05-05T13:05:53.569Z,32.10
2019-05-05T13:06:58.031Z,31.60
2019-05-05T13:08:03.870Z,32.00
2019-05-05T13:09:09.472Z,32.00
2019-05-05T13:10:17.211Z,32.80
2019-05-05T13:11:23.641Z,33.40
2019-05-05T13:12:30.839Z,33.60
2019-05-05T13:13:35.175Z,34.50
2019-05-05T13:14:39.651Z,33.70
2019-05-05T13:15:44.370Z,34.30
2019-05-05T13:16:52.891Z,33.70
2019-05-05T13:17:55.064Z,32.80
2019-05-05T13:18:59.391Z,32.00
2019-05-05T13:20:14.616Z,30.50
2019-05-05T13:21:44.205Z,30.00
2019-05-05T13:23:04.190Z,29.50
2019-05-05T13:24:30.358Z,28.70
2019-05-05T13:25:55.967Z,27.30
2019-05-05T13:27:08.471Z,26.70
2019-05-05T13:28:09.395Z,26.00
2019-05-05T13:29:14.793Z,26.30
2019-05-05T13:30:19.492Z,25.80
2019-05-05T13:31:24.006Z,25.20
2019-05-05T13:32:28.380Z,24.40
2019-05-05T13:33:37.253Z,24.30
2019-05-05T13:34:43.832Z,23.90
2019-05-05T13:35:48.444Z,24.90
2019-05-05T13:36:57.417Z,24.70
2019-05-05T13:38:03.969Z,24.50
2019-05-05T13:39:09.645Z,24.40
2019-05-05T13:40:14.982Z,24.90
2019-05-05T13:41:19.527Z,24.80
2019-05-05T13:42:24.475Z,24.80
2019-05-05T13:43:28.936Z,25.00
2019-05-05T13:44:56.874Z,25.20
2019-05-05T13:46:06.863Z,24.90
2019-05-05T13:47:11.426Z,24.40
2019-05-05T13:48:15.729Z,24.10
2019-05-05T13:49:45.595Z,23.30
2019-05-05T13:50:53.879Z,22.10
2019-05-05T13:52:01.891Z,21.10
2019-05-05T13:53:06.491Z,20.70
2019-05-05T13:54:13.290Z,20.60
2019-05-05T13:55:17.369Z,20.60
2019-05-05T13:56:21.922Z,21.20
2019-05-05T13:57:26.411Z,21.60
2019-05-05T13:58:30.824Z,22.00
2019-05-05T13:59:35.224Z,21.90
2019-05-05T14:00:39.635Z,21.10
2019-05-05T14:01:44.911Z,20.70
2019-05-05T14:02:49.511Z,20.40
2019-05-05T14:03:54.214Z,20.80
2019-05-05T14:04:59.477Z,20.40
2019-05-05T14:06:04.714Z,20.10
2019-05-05T14:07:09.427Z,20.40
2019-05-05T14:08:14.691Z,20.90
2019-05-05T14:09:19.668Z,21.40
2019-05-05T14:10:25.337Z,21.40
2019-05-05T14:11:29.722Z,20.90
2019-05-05T14:12:34.566Z,20.90
2019-05-05T14:13:39.057Z,20.60
2019-05-05T14:14:44.050Z,20.40
2019-05-05T14:15:48.519Z,19.90
2019-05-05T14:16:53.772Z,19.10
2019-05-05T14:17:58.328Z,18.50
2019-05-05T14:19:04.388Z,18.50
2019-05-05T14:20:11.961Z,18.50
2019-05-05T14:21:15.273Z,18.90
2019-05-05T14:22:19.770Z,18.90